createdAt,value
2017-04-18T00:01:26.539Z,954.94
2017-04-18T00:02:17.365Z,954.91
2017-04-18T00:03:28.988Z,954.92
2017-04-18T00:04:38.954Z,954.91
2017-04-18T00:05:28.234Z,954.86
2017-04-18T00:06:29.368Z,954.84
2017-04-18T00:07:28.554Z,954.81
2017-04-18T00:08:27.796Z,954.86
2017-04-18T00:14:28.993Z,954.84
2017-04-18T00:15:19.387Z,954.85
2017-04-18T00:17:33.062Z,954.78
2017-04-18T00:18:28.090Z,954.77
2017-04-18T00:20:29.033Z,954.75
2017-04-18T00:21:37.311Z,954.76
2017-04-18T00:23:32.199Z,954.72
2017-04-18T00:24:29.158Z,954.77
2017-04-18T00:26:26.585Z,954.65
2017-04-18T00:27:28.364Z,954.66
2017-04-18T00:31:29.306Z,954.64
2017-04-18T00:32:19.349Z,954.64
2017-04-18T00:34:33.424Z,954.60
2017-04-18T00:35:25.343Z,954.61
2017-04-18T00:37:31.740Z,954.56
2017-04-18T00:38:28.229Z,954.59
2017-04-18T00:39:26.713Z,954.55
2017-04-18T00:41:28.976Z,954.58
2017-04-18T00:42:37.990Z,954.56
2017-04-18T00:44:27.088Z,954.57
2017-04-18T00:45:30.167Z,954.54
2017-04-18T00:46:27.380Z,954.49
2017-04-18T00:49:18.747Z,954.58
2017-04-18T00:51:19.445Z,954.57
2017-04-18T00:54:31.922Z,954.53
2017-04-18T00:55:31.813Z,954.54
2017-04-18T00:56:26.304Z,954.51
2017-04-18T00:57:26.381Z,954.53
2017-04-18T00:58:38.016Z,954.50
2017-04-18T00:59:26.759Z,954.51
2017-04-18T01:00:32.014Z,954.46
2017-04-18T01:01:31.742Z,954.49
2017-04-18T01:02:28.145Z,954.42
2017-04-18T01:03:32.248Z,954.41
2017-04-18T01:04:18.366Z,954.41
2017-04-18T01:05:32.351Z,954.39
2017-04-18T01:06:35.409Z,954.39
2017-04-18T01:07:26.344Z,954.34
2017-04-18T01:08:27.421Z,954.36
2017-04-18T01:09:26.552Z,954.32
2017-04-18T01:10:31.696Z,954.26
2017-04-18T01:11:27.795Z,954.26
2017-04-18T01:12:25.912Z,954.21
2017-04-18T01:13:20.397Z,954.20
2017-04-18T01:14:28.152Z,954.18
2017-04-18T01:16:28.167Z,954.19
2017-04-18T01:17:21.047Z,954.17
2017-04-18T01:18:28.195Z,954.14
2017-04-18T01:19:27.319Z,954.19
2017-04-18T01:20:32.710Z,954.20
2017-04-18T01:21:19.901Z,954.24
2017-04-18T01:22:26.562Z,954.23
2017-04-18T01:23:26.688Z,954.29
2017-04-18T01:25:26.876Z,954.31
2017-04-18T01:26:31.671Z,954.28
2017-04-18T01:27:31.685Z,954.29
2017-04-18T01:28:26.013Z,954.30
2017-04-18T01:29:32.683Z,954.29
2017-04-18T01:30:28.155Z,954.25
2017-04-18T01:31:18.160Z,954.27
2017-04-18T01:32:27.162Z,954.25
2017-04-18T01:33:33.960Z,954.22
2017-04-18T01:34:29.116Z,954.25
2017-04-18T01:35:18.175Z,954.20
2017-04-18T01:36:27.706Z,954.21
2017-04-18T01:37:22.815Z,954.24
2017-04-18T01:38:27.379Z,954.21
2017-04-18T01:39:28.219Z,954.22
2017-04-18T01:40:26.770Z,954.23
2017-04-18T01:41:26.719Z,954.22
2017-04-18T01:42:28.017Z,954.18
2017-04-18T01:43:30.442Z,954.18
2017-04-18T01:44:24.109Z,954.18
2017-04-18T01:45:31.493Z,954.20
2017-04-18T01:46:26.607Z,954.18
2017-04-18T01:47:26.724Z,954.15
2017-04-18T01:48:27.115Z,954.22
2017-04-18T01:49:27.167Z,954.24
2017-04-18T01:50:27.325Z,954.23
2017-04-18T01:51:27.507Z,954.23
2017-04-18T01:52:26.567Z,954.31
2017-04-18T01:53:26.745Z,954.26
2017-04-18T01:54:27.762Z,954.24
2017-04-18T01:55:32.731Z,954.23
2017-04-18T01:56:31.813Z,954.20
2017-04-18T01:57:26.724Z,954.21
2017-04-18T01:58:37.093Z,954.21
2017-04-18T01:59:26.555Z,954.24
2017-04-18T02:00:20.868Z,954.22
2017-04-18T02:02:26.854Z,954.21
2017-04-18T02:03:26.955Z,954.19
2017-04-18T02:04:36.907Z,954.20
2017-04-18T02:05:17.409Z,954.18
2017-04-18T02:06:25.243Z,954.12
2017-04-18T02:07:28.116Z,954.10
2017-04-18T02:08:28.153Z,954.09
2017-04-18T02:09:29.256Z,954.09
2017-04-18T02:10:36.834Z,954.12
2017-04-18T02:11:27.522Z,954.10
2017-04-18T02:12:27.671Z,954.09
2017-04-18T02:13:26.658Z,954.08
2017-04-18T02:14:19.493Z,954.07
2017-04-18T02:15:26.553Z,954.07
2017-04-18T02:16:26.953Z,954.05
2017-04-18T02:17:19.091Z,954.03
2017-04-18T02:18:26.884Z,954.03
2017-04-18T02:19:26.926Z,953.99
2017-04-18T02:20:32.219Z,954.00
2017-04-18T02:21:26.477Z,954.00
2017-04-18T02:22:26.654Z,953.96
2017-04-18T02:23:27.298Z,953.98
2017-04-18T02:24:19.305Z,953.99
2017-04-18T02:25:28.812Z,953.96
2017-04-18T02:26:26.854Z,953.98
2017-04-18T02:27:26.447Z,953.91
2017-04-18T02:29:32.533Z,953.95
2017-04-18T02:30:27.432Z,953.96
2017-04-18T02:31:26.856Z,953.95
2017-04-18T02:32:26.486Z,953.96
2017-04-18T02:33:19.909Z,954.01
2017-04-18T02:34:19.838Z,954.00
2017-04-18T02:35:27.691Z,954.00
2017-04-18T02:36:19.501Z,954.01
2017-04-18T02:37:28.188Z,954.00
2017-04-18T02:38:18.190Z,954.03
2017-04-18T02:39:28.461Z,954.03
2017-04-18T02:40:26.768Z,954.00
2017-04-18T02:41:27.487Z,953.94
2017-04-18T02:42:26.100Z,954.02
2017-04-18T02:43:26.551Z,953.94
2017-04-18T02:44:15.617Z,953.95
2017-04-18T02:45:18.557Z,953.87
2017-04-18T02:46:26.574Z,953.90
2017-04-18T02:47:19.211Z,953.86
2017-04-18T02:48:26.324Z,953.86
2017-04-18T02:49:27.388Z,953.84
2017-04-18T02:50:28.549Z,953.87
2017-04-18T02:51:27.402Z,953.84
2017-04-18T02:52:17.118Z,953.86
2017-04-18T02:53:26.770Z,953.87
2017-04-18T02:54:27.075Z,953.86
2017-04-18T02:55:32.628Z,953.89
2017-04-18T02:56:31.763Z,953.87
2017-04-18T02:57:26.505Z,953.84
2017-04-18T02:59:26.552Z,953.90
2017-04-18T03:00:17.509Z,953.95
2017-04-18T03:01:28.166Z,953.95
2017-04-18T03:02:28.232Z,953.98
2017-04-18T03:03:32.135Z,954.02
2017-04-18T03:04:26.906Z,954.10
2017-04-18T03:05:32.343Z,954.02
2017-04-18T03:06:31.517Z,954.05
2017-04-18T03:07:32.174Z,954.11
2017-04-18T03:08:27.192Z,954.13
2017-04-18T03:09:28.195Z,954.11
2017-04-18T03:10:27.248Z,954.10
2017-04-18T03:11:20.708Z,954.12
2017-04-18T03:12:27.874Z,954.09
2017-04-18T03:13:33.361Z,954.10
2017-04-18T03:14:26.670Z,954.05
2017-04-18T03:15:31.867Z,954.11
2017-04-18T03:16:32.189Z,954.04
2017-04-18T03:17:26.550Z,954.08
2017-04-18T03:18:31.658Z,954.10
2017-04-18T03:19:32.365Z,954.08
2017-04-18T03:20:26.995Z,954.11
2017-04-18T03:21:27.879Z,954.02
2017-04-18T03:23:26.528Z,954.14
2017-04-18T03:24:27.356Z,954.06
2017-04-18T03:25:23.140Z,954.13
2017-04-18T03:26:27.121Z,954.12
2017-04-18T03:27:20.590Z,954.07
2017-04-18T03:28:32.802Z,954.10
2017-04-18T03:29:32.303Z,954.10
2017-04-18T03:30:27.262Z,954.10
2017-04-18T03:31:26.894Z,954.07
2017-04-18T03:32:26.478Z,954.11
2017-04-18T03:33:33.812Z,954.06
2017-04-18T03:35:27.861Z,954.03
2017-04-18T03:36:26.908Z,954.02
2017-04-18T03:37:29.350Z,954.07
2017-04-18T03:38:15.445Z,954.12
2017-04-18T03:39:32.515Z,954.11
2017-04-18T03:40:26.488Z,954.11
2017-04-18T03:41:17.688Z,954.09
2017-04-18T03:42:27.662Z,954.08
2017-04-18T03:43:28.808Z,953.99
2017-04-18T03:45:27.015Z,954.07
2017-04-18T03:47:27.169Z,954.07
2017-04-18T03:48:29.274Z,954.10
2017-04-18T03:49:35.257Z,954.09
2017-04-18T03:50:26.841Z,954.16
2017-04-18T03:51:32.630Z,954.14
2017-04-18T03:52:22.290Z,954.12
2017-04-18T03:53:26.677Z,954.11
2017-04-18T03:54:18.936Z,954.12
2017-04-18T03:55:26.696Z,954.13
2017-04-18T03:56:21.770Z,954.15
2017-04-18T03:57:31.804Z,954.15
2017-04-18T03:58:12.675Z,954.19
2017-04-18T03:59:18.239Z,954.18
2017-04-18T04:00:37.649Z,954.21
2017-04-18T04:01:28.259Z,954.22
2017-04-18T04:02:27.140Z,954.21
2017-04-18T04:03:26.873Z,954.20
2017-04-18T04:04:27.638Z,954.25
2017-04-18T04:05:22.573Z,954.25
2017-04-18T04:06:32.830Z,954.21
2017-04-18T04:07:27.081Z,954.24
2017-04-18T04:08:27.533Z,954.19
2017-04-18T04:09:18.618Z,954.21
2017-04-18T04:10:17.663Z,954.23
2017-04-18T04:11:26.512Z,954.24
2017-04-18T04:12:18.095Z,954.21
2017-04-18T04:13:18.200Z,954.17
2017-04-18T04:14:17.823Z,954.20
2017-04-18T04:15:27.827Z,954.19
2017-04-18T04:16:27.291Z,954.17
2017-04-18T04:17:19.261Z,954.21
2017-04-18T04:18:27.492Z,954.21
2017-04-18T04:19:26.906Z,954.24
2017-04-18T04:20:27.952Z,954.22
2017-04-18T04:21:18.178Z,954.27
2017-04-18T04:22:31.437Z,954.25
2017-04-18T04:23:27.956Z,954.26
2017-04-18T04:24:30.661Z,954.28
2017-04-18T04:26:26.317Z,954.33
2017-04-18T04:27:26.155Z,954.29
2017-04-18T04:28:27.283Z,954.32
2017-04-18T04:29:23.369Z,954.31
2017-04-18T04:30:26.614Z,954.31
2017-04-18T04:31:26.645Z,954.29
2017-04-18T04:32:27.573Z,954.28
2017-04-18T04:33:19.644Z,954.27
2017-04-18T04:35:27.299Z,954.32
2017-04-18T04:36:31.900Z,954.32
2017-04-18T04:37:27.001Z,954.30
2017-04-18T04:38:27.122Z,954.33
2017-04-18T04:39:19.668Z,954.36
2017-04-18T04:40:27.803Z,954.35
2017-04-18T04:41:32.412Z,954.38
2017-04-18T04:42:27.904Z,954.37
2017-04-18T04:43:26.348Z,954.38
2017-04-18T04:44:27.004Z,954.38
2017-04-18T04:45:31.605Z,954.39
2017-04-18T04:46:32.759Z,954.40
2017-04-18T04:47:31.650Z,954.43
2017-04-18T04:48:27.168Z,954.44
2017-04-18T04:49:32.504Z,954.45
2017-04-18T04:50:27.544Z,954.44
2017-04-18T04:51:26.526Z,954.47
2017-04-18T04:53:27.037Z,954.46
2017-04-18T04:54:21.049Z,954.46
2017-04-18T04:55:27.564Z,954.53
2017-04-18T04:56:17.401Z,954.46
2017-04-18T04:57:38.500Z,954.49
2017-04-18T04:58:32.238Z,954.45
2017-04-18T04:59:32.320Z,954.47
2017-04-18T05:00:26.636Z,954.44
2017-04-18T05:01:26.689Z,954.45
2017-04-18T05:02:23.183Z,954.47
2017-04-18T05:03:19.227Z,954.53
2017-04-18T05:04:27.317Z,954.45
2017-04-18T05:06:17.582Z,954.51
2017-04-18T05:09:18.319Z,954.52
2017-04-18T05:10:26.800Z,954.57
2017-04-18T05:11:17.920Z,954.53
2017-04-18T05:13:26.538Z,954.56
2017-04-18T05:14:26.451Z,954.59
2017-04-18T05:15:26.476Z,954.59
2017-04-18T05:16:18.420Z,954.60
2017-04-18T05:17:27.582Z,954.61
2017-04-18T05:18:17.656Z,954.58
2017-04-18T05:19:20.343Z,954.65
2017-04-18T05:20:31.349Z,954.65
2017-04-18T05:21:26.270Z,954.68
2017-04-18T05:22:20.930Z,954.69
2017-04-18T05:23:27.308Z,954.69
2017-04-18T05:24:18.404Z,954.69
2017-04-18T05:25:23.773Z,954.73
2017-04-18T05:26:32.583Z,954.77
2017-04-18T05:27:21.706Z,954.73
2017-04-18T05:31:26.956Z,954.88
2017-04-18T05:32:22.593Z,954.90
2017-04-18T05:33:27.933Z,954.92
2017-04-18T05:34:33.089Z,954.92
2017-04-18T05:35:27.937Z,955.00
2017-04-18T05:36:26.597Z,955.01
2017-04-18T05:37:26.713Z,954.98
2017-04-18T05:38:18.334Z,954.98
2017-04-18T05:39:17.103Z,955.06
2017-04-18T05:40:48.670Z,955.04
2017-04-18T05:42:27.960Z,955.06
2017-04-18T05:43:33.130Z,955.11
2017-04-18T05:44:26.543Z,955.11
2017-04-18T05:45:27.601Z,955.15
2017-04-18T05:46:28.277Z,955.16
2017-04-18T05:47:27.593Z,955.18
2017-04-18T05:48:28.338Z,955.13
2017-04-18T05:49:27.651Z,955.20
2017-04-18T05:50:27.532Z,955.20
2017-04-18T05:52:26.716Z,955.20
2017-04-18T05:53:27.202Z,955.19
2017-04-18T05:54:17.502Z,955.16
2017-04-18T05:55:26.751Z,955.14
2017-04-18T05:56:28.463Z,955.20
2017-04-18T05:57:32.678Z,955.24
2017-04-18T05:58:26.848Z,955.30
2017-04-18T05:59:18.358Z,955.31
2017-04-18T06:00:28.246Z,955.29
2017-04-18T06:01:27.106Z,955.28
2017-04-18T06:02:32.668Z,955.34
2017-04-18T06:03:17.862Z,955.33
2017-04-18T06:04:25.585Z,955.28
2017-04-18T06:05:18.584Z,955.29
2017-04-18T06:06:18.188Z,955.26
2017-04-18T06:07:27.352Z,955.27
2017-04-18T06:08:27.448Z,955.33
2017-04-18T06:09:27.489Z,955.30
2017-04-18T06:11:26.807Z,955.22
2017-04-18T06:12:26.929Z,955.29
2017-04-18T06:13:19.050Z,955.26
2017-04-18T06:15:25.555Z,955.26
2017-04-18T06:16:17.998Z,955.24
2017-04-18T06:17:26.419Z,955.26
2017-04-18T06:18:28.591Z,955.30
2017-04-18T06:19:23.370Z,955.30
2017-04-18T06:21:26.775Z,955.31
2017-04-18T06:22:26.810Z,955.28
2017-04-18T06:23:27.235Z,955.28
2017-04-18T06:24:26.014Z,955.33
2017-04-18T06:25:26.916Z,955.28
2017-04-18T06:26:27.048Z,955.29
2017-04-18T06:27:26.082Z,955.30
2017-04-18T06:28:26.907Z,955.35
2017-04-18T06:29:25.712Z,955.37
2017-04-18T06:30:26.511Z,955.41
2017-04-18T06:31:22.014Z,955.39
2017-04-18T06:33:32.167Z,955.39
2017-04-18T06:34:27.209Z,955.40
2017-04-18T06:35:26.699Z,955.47
2017-04-18T06:36:26.780Z,955.43
2017-04-18T06:37:19.815Z,955.45
2017-04-18T06:39:27.013Z,955.45
2017-04-18T06:40:22.423Z,955.44
2017-04-18T06:41:26.696Z,955.49
2017-04-18T06:43:26.823Z,955.52
2017-04-18T06:45:26.405Z,955.52
2017-04-18T06:46:31.518Z,955.54
2017-04-18T06:47:27.429Z,955.58
2017-04-18T06:48:37.377Z,955.56
2017-04-18T06:49:23.345Z,955.55
2017-04-18T06:50:32.012Z,955.56
2017-04-18T06:51:27.489Z,955.58
2017-04-18T06:52:27.127Z,955.62
2017-04-18T06:53:22.374Z,955.60
2017-04-18T06:54:28.089Z,955.59
2017-04-18T06:56:28.183Z,955.61
2017-04-18T06:57:22.278Z,955.61
2017-04-18T07:01:20.443Z,955.65
2017-04-18T07:02:33.781Z,955.61
2017-04-18T07:03:38.097Z,955.64
2017-04-18T07:04:18.154Z,955.63
2017-04-18T07:05:20.244Z,955.61
2017-04-18T07:06:18.802Z,955.63
2017-04-18T07:07:27.626Z,955.67
2017-04-18T07:08:26.427Z,955.63
2017-04-18T07:09:27.726Z,955.66
2017-04-18T07:10:26.200Z,955.62
2017-04-18T07:11:20.945Z,955.65
2017-04-18T07:13:26.624Z,955.62
2017-04-18T07:15:27.028Z,955.66
2017-04-18T07:16:13.602Z,955.60
2017-04-18T07:17:32.404Z,955.60
2017-04-18T07:18:28.157Z,955.63
2017-04-18T07:19:29.038Z,955.65
2017-04-18T07:20:20.229Z,955.64
2017-04-18T07:21:18.584Z,955.63
2017-04-18T07:22:19.466Z,955.70
2017-04-18T07:25:22.689Z,955.68
2017-04-18T07:26:18.057Z,955.69
2017-04-18T07:27:26.965Z,955.68
2017-04-18T07:28:26.709Z,955.67
2017-04-18T07:29:26.201Z,955.69
2017-04-18T07:30:26.816Z,955.66
2017-04-18T07:31:20.282Z,955.78
2017-04-18T07:34:27.048Z,955.78
2017-04-18T07:35:26.375Z,955.82
2017-04-18T07:36:26.874Z,955.82
2017-04-18T07:37:26.922Z,955.82
2017-04-18T07:38:28.384Z,955.86
2017-04-18T07:39:25.161Z,955.81
2017-04-18T07:40:19.278Z,955.82
2017-04-18T07:42:27.458Z,955.85
2017-04-18T07:45:26.551Z,955.83
2017-04-18T07:46:36.429Z,955.84
2017-04-18T07:47:26.889Z,955.83
2017-04-18T07:48:22.859Z,955.85
2017-04-18T07:49:24.323Z,955.84
2017-04-18T07:50:27.211Z,955.83
2017-04-18T07:51:20.660Z,955.84
2017-04-18T07:52:22.239Z,955.79
2017-04-18T07:53:17.011Z,955.83
2017-04-18T07:54:13.056Z,955.79
2017-04-18T07:55:23.062Z,955.84
2017-04-18T07:56:27.191Z,955.82
2017-04-18T07:57:32.007Z,955.81
2017-04-18T07:58:27.247Z,955.88
2017-04-18T08:00:32.466Z,955.85
2017-04-18T08:01:26.556Z,955.78
2017-04-18T08:03:27.827Z,955.79
2017-04-18T08:04:22.564Z,955.81
2017-04-18T08:05:27.060Z,955.82
2017-04-18T08:06:23.262Z,955.83
2017-04-18T08:08:32.243Z,955.86
2017-04-18T08:09:27.074Z,955.84
2017-04-18T08:10:32.524Z,955.87
2017-04-18T08:11:27.212Z,955.86
2017-04-18T08:12:26.598Z,955.89
2017-04-18T08:13:26.115Z,955.91
2017-04-18T08:14:27.336Z,955.91
2017-04-18T08:15:19.649Z,955.95
2017-04-18T08:16:18.199Z,955.95
2017-04-18T08:17:27.475Z,955.97
2017-04-18T08:18:27.799Z,955.93
2017-04-18T08:19:24.650Z,955.96
2017-04-18T08:20:32.397Z,955.96
2017-04-18T08:21:22.606Z,955.98
2017-04-18T08:22:26.595Z,955.96
2017-04-18T08:23:28.807Z,955.91
2017-04-18T08:24:28.658Z,955.95
2017-04-18T08:25:18.365Z,955.90
2017-04-18T08:26:26.158Z,955.98
2017-04-18T08:27:17.820Z,955.92
2017-04-18T08:28:19.528Z,955.97
2017-04-18T08:29:22.374Z,955.92
2017-04-18T08:31:27.664Z,955.98
2017-04-18T08:32:19.016Z,955.93
2017-04-18T08:33:32.278Z,955.94
2017-04-18T08:34:27.249Z,955.97
2017-04-18T08:35:33.090Z,956.04
2017-04-18T08:36:28.111Z,956.00
2017-04-18T08:37:27.980Z,956.04
2017-04-18T08:38:27.080Z,956.05
2017-04-18T08:39:27.907Z,956.01
2017-04-18T08:40:26.480Z,956.03
2017-04-18T08:41:38.190Z,955.99
2017-04-18T08:42:32.462Z,955.99
2017-04-18T08:43:27.925Z,955.95
2017-04-18T08:44:27.325Z,955.90
2017-04-18T08:45:26.566Z,956.05
2017-04-18T08:47:27.362Z,956.04
2017-04-18T08:48:26.580Z,956.07
2017-04-18T08:49:24.807Z,956.07
2017-04-18T08:50:17.571Z,956.13
2017-04-18T08:51:26.898Z,956.24
2017-04-18T08:52:26.988Z,956.21
2017-04-18T08:53:23.151Z,956.25
2017-04-18T08:54:18.242Z,956.20
2017-04-18T08:55:27.266Z,956.28
2017-04-18T08:56:27.291Z,956.33
2017-04-18T08:57:19.414Z,956.35
2017-04-18T08:58:26.473Z,956.42
2017-04-18T08:59:26.910Z,956.42
2017-04-18T09:00:19.160Z,956.42
2017-04-18T09:01:26.761Z,956.42
2017-04-18T09:02:26.850Z,956.46
2017-04-18T09:04:27.022Z,956.51
2017-04-18T09:05:24.228Z,956.43
2017-04-18T09:06:18.247Z,956.51
2017-04-18T09:07:27.340Z,956.53
2017-04-18T09:08:27.380Z,956.57
2017-04-18T09:09:26.831Z,956.51
2017-04-18T09:10:33.048Z,956.52
2017-04-18T09:11:28.411Z,956.52
2017-04-18T09:12:28.526Z,956.53
2017-04-18T09:14:22.938Z,956.56
2017-04-18T09:15:22.530Z,956.61
2017-04-18T09:16:19.836Z,956.59
2017-04-18T09:17:27.288Z,956.54
2017-04-18T09:18:26.824Z,956.58
2017-04-18T09:19:24.048Z,956.54
2017-04-18T09:20:22.181Z,956.53
2017-04-18T09:21:22.553Z,956.54
2017-04-18T09:23:27.874Z,956.52
2017-04-18T09:24:31.883Z,956.56
2017-04-18T09:25:18.596Z,956.52
2017-04-18T09:26:22.528Z,956.55
2017-04-18T09:27:27.129Z,956.50
2017-04-18T09:28:26.796Z,956.52
2017-04-18T09:29:27.893Z,956.52
2017-04-18T09:30:26.738Z,956.48
2017-04-18T09:31:26.701Z,956.54
2017-04-18T09:32:31.763Z,956.52
2017-04-18T09:33:23.156Z,956.46
2017-04-18T09:34:28.159Z,956.53
2017-04-18T09:36:26.682Z,956.51
2017-04-18T09:37:26.751Z,956.52
2017-04-18T09:38:27.284Z,956.58
2017-04-18T09:39:26.672Z,956.58
2017-04-18T09:40:23.681Z,956.54
2017-04-18T09:41:26.998Z,956.52
2017-04-18T09:42:23.708Z,956.52
2017-04-18T09:43:24.067Z,956.54
2017-04-18T09:44:31.337Z,956.55
2017-04-18T09:45:22.401Z,956.56
2017-04-18T09:46:32.401Z,956.60
2017-04-18T09:47:28.339Z,956.55
2017-04-18T09:48:26.473Z,956.59
2017-04-18T09:50:27.900Z,956.64
2017-04-18T09:51:27.851Z,956.55
2017-04-18T09:52:26.837Z,956.63
2017-04-18T09:53:28.020Z,956.59
2017-04-18T09:54:33.242Z,956.64
2017-04-18T09:55:19.723Z,956.66
2017-04-18T09:56:23.280Z,956.65
2017-04-18T09:57:22.624Z,956.64
2017-04-18T09:58:23.270Z,956.65
2017-04-18T09:59:28.094Z,956.61
2017-04-18T10:00:27.930Z,956.63
2017-04-18T10:01:28.092Z,956.67
2017-04-18T10:05:32.662Z,956.68
2017-04-18T10:06:26.723Z,956.63
2017-04-18T10:07:26.799Z,956.61
2017-04-18T10:08:25.628Z,956.56
2017-04-18T10:09:22.683Z,956.65
2017-04-18T10:10:22.670Z,956.60
2017-04-18T10:11:22.755Z,956.59
2017-04-18T10:12:26.982Z,956.63
2017-04-18T10:13:27.670Z,956.63
2017-04-18T10:14:18.798Z,956.62
2017-04-18T10:15:22.335Z,956.62
2017-04-18T10:16:37.601Z,956.63
2017-04-18T10:17:21.938Z,956.64
2017-04-18T10:18:22.503Z,956.55
2017-04-18T10:19:24.561Z,956.60
2017-04-18T10:20:32.121Z,956.61
2017-04-18T10:21:27.098Z,956.54
2017-04-18T10:23:26.773Z,956.49
2017-04-18T10:24:23.927Z,956.59
2017-04-18T10:25:28.309Z,956.62
2017-04-18T10:26:18.346Z,956.58
2017-04-18T10:27:28.634Z,956.62
2017-04-18T10:28:27.788Z,956.58
2017-04-18T10:29:27.991Z,956.60
2017-04-18T10:30:28.066Z,956.67
2017-04-18T10:31:20.624Z,956.63
2017-04-18T10:32:23.444Z,956.62
2017-04-18T10:33:37.839Z,956.60
2017-04-18T10:34:21.467Z,956.60
2017-04-18T10:35:27.108Z,956.65
2017-04-18T10:36:22.632Z,956.70
2017-04-18T10:37:27.895Z,956.59
2017-04-18T10:38:22.868Z,956.64
2017-04-18T10:39:26.738Z,956.65
2017-04-18T10:40:23.470Z,956.64
2017-04-18T10:41:29.305Z,956.64
2017-04-18T10:42:21.015Z,956.66
2017-04-18T10:43:27.009Z,956.67
2017-04-18T10:44:27.326Z,956.65
2017-04-18T10:45:27.315Z,956.69
2017-04-18T10:46:26.298Z,956.60
2017-04-18T10:47:33.201Z,956.66
2017-04-18T10:48:28.017Z,956.68
2017-04-18T10:49:33.860Z,956.68
2017-04-18T10:50:21.913Z,956.69
2017-04-18T10:51:27.748Z,956.67
2017-04-18T10:52:19.538Z,956.70
2017-04-18T10:53:28.336Z,956.67
2017-04-18T10:54:17.600Z,956.72
2017-04-18T10:56:32.566Z,956.71
2017-04-18T10:57:31.040Z,956.67
2017-04-18T10:58:32.549Z,956.68
2017-04-18T10:59:23.065Z,956.82
2017-04-18T11:01:26.629Z,956.80
2017-04-18T11:02:21.892Z,956.81
2017-04-18T11:03:27.117Z,956.82
2017-04-18T11:04:26.591Z,956.86
2017-04-18T11:05:26.719Z,956.87
2017-04-18T11:07:28.335Z,956.81
2017-04-18T11:08:23.876Z,956.87
2017-04-18T11:09:27.009Z,956.87
2017-04-18T11:10:27.888Z,956.90
2017-04-18T11:11:27.956Z,956.85
2017-04-18T11:12:19.594Z,956.85
2017-04-18T11:13:24.162Z,956.91
2017-04-18T11:14:37.978Z,956.91
2017-04-18T11:15:26.980Z,956.90
2017-04-18T11:17:26.419Z,956.89
2017-04-18T11:19:27.827Z,956.96
2017-04-18T11:20:32.349Z,956.99
2017-04-18T11:21:22.627Z,956.99
2017-04-18T11:22:26.627Z,957.01
2017-04-18T11:23:26.823Z,956.99
2017-04-18T11:25:27.202Z,957.01
2017-04-18T11:26:22.375Z,957.12
2017-04-18T11:27:26.698Z,957.08
2017-04-18T11:28:19.221Z,957.13
2017-04-18T11:29:22.992Z,957.15
2017-04-18T11:30:23.119Z,957.18
2017-04-18T11:31:27.254Z,957.20
2017-04-18T11:32:27.716Z,957.20
2017-04-18T11:33:27.750Z,957.20
2017-04-18T11:34:28.012Z,957.28
2017-04-18T11:36:28.148Z,957.32
2017-04-18T11:37:27.832Z,957.30
2017-04-18T11:38:27.798Z,957.28
2017-04-18T11:39:19.417Z,957.32
2017-04-18T11:40:28.323Z,957.34
2017-04-18T11:42:32.476Z,957.40
2017-04-18T11:43:27.605Z,957.45
2017-04-18T11:44:31.826Z,957.43
2017-04-18T11:45:23.585Z,957.38
2017-04-18T11:47:28.391Z,957.47
2017-04-18T11:48:27.081Z,957.49
2017-04-18T11:49:23.847Z,957.48
2017-04-18T11:50:18.552Z,957.49
2017-04-18T11:51:26.630Z,957.52
2017-04-18T11:52:22.929Z,957.51
2017-04-18T11:53:27.006Z,957.54
2017-04-18T11:54:21.080Z,957.50
2017-04-18T11:55:20.618Z,957.53
2017-04-18T11:56:19.712Z,957.53
2017-04-18T11:57:28.228Z,957.53
2017-04-18T12:00:22.839Z,957.61
2017-04-18T12:01:22.991Z,957.55
2017-04-18T12:02:16.035Z,957.62
2017-04-18T12:03:18.026Z,957.58
2017-04-18T12:04:32.583Z,957.60
2017-04-18T12:06:17.874Z,957.57
2017-04-18T12:07:26.594Z,957.56
2017-04-18T12:08:26.445Z,957.59
2017-04-18T12:10:27.946Z,957.65
2017-04-18T12:12:17.505Z,957.59
2017-04-18T12:13:17.181Z,957.64
2017-04-18T12:15:32.825Z,957.63
2017-04-18T12:16:26.595Z,957.63
2017-04-18T12:18:36.511Z,957.63
2017-04-18T12:19:27.759Z,957.68
2017-04-18T12:23:31.622Z,957.71
2017-04-18T12:24:26.412Z,957.66
2017-04-18T12:27:33.447Z,957.60
2017-04-18T12:29:22.730Z,957.64
2017-04-18T12:30:27.869Z,957.62
2017-04-18T12:32:26.582Z,957.64
2017-04-18T12:34:27.910Z,957.71
2017-04-18T12:35:26.773Z,957.63
2017-04-18T12:36:22.820Z,957.65
2017-04-18T12:39:28.113Z,957.66
2017-04-18T12:40:20.249Z,957.66
2017-04-18T12:42:27.780Z,957.68
2017-04-18T12:45:22.793Z,957.66
2017-04-18T12:46:28.061Z,957.66
2017-04-18T12:48:22.568Z,957.59
2017-04-18T12:51:28.293Z,957.64
2017-04-18T12:52:17.585Z,957.62
2017-04-18T12:53:32.960Z,957.68
2017-04-18T12:54:28.152Z,957.68
2017-04-18T12:55:27.201Z,957.62
2017-04-18T12:57:30.040Z,957.71
2017-04-18T12:58:27.160Z,957.64
2017-04-18T12:59:27.710Z,957.65
2017-04-18T13:01:27.161Z,957.68
2017-04-18T13:02:23.010Z,957.71
2017-04-18T13:03:32.965Z,957.63
2017-04-18T13:05:17.352Z,957.61
2017-04-18T13:08:33.131Z,957.60
2017-04-18T13:09:27.084Z,957.55
2017-04-18T13:10:27.251Z,957.53
2017-04-18T13:11:26.420Z,957.58
2017-04-18T13:12:27.135Z,957.56
2017-04-18T13:13:23.194Z,957.53
2017-04-18T13:14:27.930Z,957.53
2017-04-18T13:16:22.515Z,957.56
2017-04-18T13:17:38.146Z,957.54
2017-04-18T13:18:32.942Z,957.57
2017-04-18T13:19:28.043Z,957.61
2017-04-18T13:20:16.279Z,957.59
2017-04-18T13:21:26.504Z,957.57
2017-04-18T13:23:27.760Z,957.56
2017-04-18T13:26:27.213Z,957.56
2017-04-18T13:29:23.701Z,957.56
2017-04-18T13:32:26.952Z,957.60
2017-04-18T13:33:27.468Z,957.63
2017-04-18T13:34:27.491Z,957.63
2017-04-18T13:37:26.965Z,957.66
2017-04-18T13:38:27.126Z,957.68
2017-04-18T13:39:27.578Z,957.69
2017-04-18T13:40:26.584Z,957.63
2017-04-18T13:41:33.903Z,957.61
2017-04-18T13:42:27.312Z,957.62
2017-04-18T13:46:26.675Z,957.55
2017-04-18T13:47:26.976Z,957.61
2017-04-18T13:48:27.004Z,957.59
2017-04-18T13:50:26.551Z,957.59
2017-04-18T13:51:19.434Z,957.59
2017-04-18T13:52:32.279Z,957.64
2017-04-18T13:53:27.015Z,957.60
2017-04-18T13:55:33.185Z,957.58
2017-04-18T13:58:28.209Z,957.62
2017-04-18T14:01:26.779Z,957.60
2017-04-18T14:05:23.220Z,957.59
2017-04-18T14:08:33.565Z,957.58
2017-04-18T14:10:17.999Z,957.56
2017-04-18T14:11:20.121Z,957.57
2017-04-18T14:13:28.026Z,957.57
2017-04-18T14:14:25.092Z,957.67
2017-04-18T14:15:32.178Z,957.64
2017-04-18T14:17:31.813Z,957.62
2017-04-18T14:18:22.547Z,957.56
2017-04-18T14:19:22.499Z,957.59
2017-04-18T14:21:26.372Z,957.59
2017-04-18T14:23:24.160Z,957.61
2017-04-18T14:24:28.339Z,957.61
2017-04-18T14:25:20.749Z,957.64
2017-04-18T14:28:26.766Z,957.67
2017-04-18T14:30:26.364Z,957.79
2017-04-18T14:35:22.804Z,957.82
2017-04-18T14:38:28.885Z,957.85
2017-04-18T14:39:32.127Z,957.83
2017-04-18T14:42:27.304Z,957.80
2017-04-18T14:43:19.343Z,957.82
2017-04-18T14:45:28.266Z,957.76
2017-04-18T14:47:19.754Z,957.90
2017-04-18T14:55:33.560Z,957.86
2017-04-18T14:58:33.797Z,957.83
2017-04-18T14:59:27.605Z,957.89
2017-04-18T15:00:22.510Z,957.85
2017-04-18T15:01:26.598Z,957.91
2017-04-18T15:02:25.988Z,957.89
2017-04-18T15:03:19.115Z,957.85
2017-04-18T15:04:26.982Z,957.93
2017-04-18T15:05:20.002Z,957.91
2017-04-18T15:10:22.480Z,958.00
2017-04-18T15:12:28.053Z,958.04
2017-04-18T15:14:27.279Z,958.15
2017-04-18T15:15:19.471Z,958.13
2017-04-18T15:17:26.505Z,958.08
2017-04-18T15:20:22.769Z,958.07
2017-04-18T15:21:37.904Z,958.12
2017-04-18T15:22:32.094Z,958.11